Time;durP1;ratioP1;P1;durP2;ratioP2;P2;SDS_P1;SDS_P2;PMS_P1;PMS_P2;Temp;Humidity;BMP_temperature;BMP_pressure;BME280_temperature;BME280_humidity;BME280_pressure;Samples;Min_cycle;Max_cycle;Signal;HPM_P1;HPM_P2
2022/01/06 00:00:47;;;;;;;16.50;10.02;;;;;;;-0.14;89.56;97483.41;5052073;28;20037;-59
2022/01/06 00:03:12;;;;;;;14.63;9.40;;;;;;;-0.19;89.60;97473.31;5051453;28;20036;-59
2022/01/06 00:05:38;;;;;;;12.88;8.10;;;;;;;-0.06;89.49;97486.69;5051381;28;20268;-60
2022/01/06 00:08:04;;;;;;;16.83;9.60;;;;;;;-0.04;90.11;97483.28;5052382;28;20024;-59
2022/01/06 00:10:31;;;;;;;13.43;8.98;;;;;;;0.03;88.95;97494.22;5051063;28;20272;-60
2022/01/06 00:23:33;;;;;;;10.23;7.35;;;;;;;0.12;90.19;97490.69;5051261;28;20033;-60
2022/01/06 00:26:00;;;;;;;11.13;7.15;;;;;;;0.17;90.23;97494.84;5050283;28;20036;-60
2022/01/06 00:28:26;;;;;;;10.73;7.35;;;;;;;0.12;90.20;97486.41;5051629;28;20086;-59
2022/01/06 00:30:52;;;;;;;11.75;8.15;;;;;;;0.21;90.21;97508.34;5050353;28;20214;-60
2022/01/06 00:33:17;;;;;;;12.50;7.20;;;;;;;0.17;90.42;97505.03;5052098;28;20021;-60
2022/01/06 00:35:43;;;;;;;11.75;7.25;;;;;;;0.17;90.97;97489.75;5050918;28;20044;-60
2022/01/06 00:38:09;;;;;;;9.07;6.78;;;;;;;0.32;90.57;97508.19;5052058;28;20067;-59
2022/01/06 00:40:35;;;;;;;9.30;6.30;;;;;;;0.34;89.72;97509.00;5050477;28;20249;-60
2022/01/06 00:43:03;;;;;;;9.68;6.60;;;;;;;0.40;90.33;97501.28;5050596;28;20033;-60
2022/01/06 00:45:29;;;;;;;9.43;6.80;;;;;;;0.40;90.02;97498.72;5049755;28;20063;-61
2022/01/06 00:47:55;;;;;;;10.57;6.57;;;;;;;0.41;89.99;97504.66;5049816;28;20131;-60
2022/01/06 00:50:21;;;;;;;8.02;6.15;;;;;;;0.36;90.07;97494.56;5050662;28;20041;-60
2022/01/06 00:52:46;;;;;;;11.15;7.03;;;;;;;0.51;89.51;97504.50;5051100;28;20910;-60
2022/01/06 00:55:12;;;;;;;9.25;6.88;;;;;;;0.57;89.49;97495.03;5050146;28;20063;-60
2022/01/06 00:57:38;;;;;;;8.55;6.18;;;;;;;0.56;89.35;97501.84;5050775;28;20219;-60
2022/01/06 01:00:05;;;;;;;9.15;6.10;;;;;;;0.58;89.11;97501.81;5049531;28;20037;-59
2022/01/06 01:02:30;;;;;;;9.30;6.07;;;;;;;0.67;89.02;97515.25;5049706;28;20063;-59
2022/01/06 01:04:56;;;;;;;9.65;6.20;;;;;;;0.63;89.26;97507.69;5064567;28;20041;-59
2022/01/06 01:07:21;;;;;;;8.93;6.22;;;;;;;0.60;89.35;97502.63;5049940;28;20021;-59
2022/01/06 01:09:47;;;;;;;8.77;6.35;;;;;;;0.60;89.47;97503.50;5050770;28;20064;-59
2022/01/06 01:12:12;;;;;;;9.32;6.57;;;;;;;0.68;89.87;97513.53;5050353;28;20068;-60
2022/01/06 01:14:53;;;;;;;8.45;6.22;;;;;;;0.71;89.39;97521.13;5049949;28;20033;-62
2022/01/06 01:17:19;;;;;;;8.57;5.93;;;;;;;0.72;89.42;97515.16;5051052;28;20040;-59
2022/01/06 01:19:44;;;;;;;8.57;5.53;;;;;;;0.79;88.87;97513.34;5050489;28;20029;-58
2022/01/06 01:22:10;;;;;;;10.50;6.53;;;;;;;0.78;89.19;97512.50;5050354;28;20037;-59
2022/01/06 01:24:35;;;;;;;7.03;6.15;;;;;;;0.81;88.99;97519.25;5049642;28;20024;-60
2022/01/06 01:27:01;;;;;;;8.13;5.93;;;;;;;0.75;89.21;97522.75;5050006;28;20020;-60
2022/01/06 01:29:29;;;;;;;7.60;5.85;;;;;;;0.85;89.40;97531.91;5051016;28;20037;-60
2022/01/06 01:31:55;;;;;;;6.60;5.63;;;;;;;0.76;89.25;97529.53;5050075;28;20078;-60
2022/01/06 01:34:25;;;;;;;8.25;6.05;;;;;;;0.75;89.32;97535.47;5050859;28;20037;-59
2022/01/06 01:36:52;;;;;;;7.28;6.03;;;;;;;0.80;88.94;97526.06;5050147;28;20361;-59
2022/01/06 01:39:18;;;;;;;9.98;5.95;;;;;;;0.81;89.35;97522.66;5049594;28;20076;-59
2022/01/06 01:41:44;;;;;;;7.63;6.13;;;;;;;0.75;88.77;97511.72;5048781;28;20317;-59
2022/01/06 01:44:13;;;;;;;7.25;5.28;;;;;;;0.82;89.31;97514.13;5049260;28;20048;-59
2022/01/06 01:46:45;;;;;;;6.50;5.40;;;;;;;0.86;88.57;97525.94;5049384;28;20214;-59
2022/01/06 01:51:45;;;;;;;6.93;5.03;;;;;;;0.94;88.20;97520.72;5049293;28;20040;-59
2022/01/06 01:54:11;;;;;;;6.50;5.38;;;;;;;0.95;88.20;97516.47;5065141;28;20052;-59
2022/01/06 01:56:37;;;;;;;7.60;5.18;;;;;;;0.92;88.23;97531.81;5048618;28;20036;-59
2022/01/06 01:59:03;;;;;;;6.95;4.85;;;;;;;0.97;88.13;97518.13;5046696;28;20045;-59
2022/01/06 02:01:29;;;;;;;8.52;5.18;;;;;;;1.00;88.15;97518.06;5048017;28;20128;-59
2022/01/06 02:03:54;;;;;;;7.45;4.95;;;;;;;1.03;87.81;97512.06;5049832;28;20029;-59
2022/01/06 02:06:20;;;;;;;7.97;4.75;;;;;;;0.97;88.00;97500.28;5050709;28;20087;-59
2022/01/06 02:08:46;;;;;;;7.75;5.20;;;;;;;0.97;88.24;97507.06;5049761;28;20199;-59
2022/01/06 02:11:12;;;;;;;7.32;4.97;;;;;;;1.02;88.42;97525.69;5049115;28;20041;-59
2022/01/06 02:13:51;;;;;;;8.73;5.15;;;;;;;0.94;88.18;97520.72;5049321;28;20036;-59
2022/01/06 02:16:21;;;;;;;6.45;5.22;;;;;;;1.00;88.88;97530.81;5049084;28;20092;-59
2022/01/06 02:18:48;;;;;;;6.18;4.55;;;;;;;1.02;88.36;97526.50;5048295;28;20033;-59
2022/01/06 02:21:14;;;;;;;5.90;4.63;;;;;;;0.97;88.14;97523.22;5049139;28;20040;-59
2022/01/06 02:23:39;;;;;;;6.07;4.75;;;;;;;0.97;88.25;97523.22;5049267;28;20056;-59
2022/01/06 02:26:05;;;;;;;6.90;4.82;;;;;;;0.97;88.01;97512.16;5048590;28;20025;-59
2022/01/06 02:28:30;;;;;;;6.32;4.90;;;;;;;1.05;88.19;97517.13;5046960;28;20063;-59
2022/01/06 02:30:57;;;;;;;6.88;5.10;;;;;;;1.08;87.82;97523.00;5049720;28;20037;-59
2022/01/06 02:33:27;;;;;;;5.93;4.90;;;;;;;1.10;87.40;97510.22;5049526;28;20046;-59
2022/01/06 02:35:54;;;;;;;5.53;4.32;;;;;;;1.15;87.94;97523.75;5049156;28;20037;-59
2022/01/06 02:38:20;;;;;;;7.13;5.13;;;;;;;1.16;88.03;97522.88;5049645;28;20049;-59
2022/01/06 02:40:47;;;;;;;8.02;5.03;;;;;;;1.10;87.55;97508.53;5047767;28;20052;-59
2022/01/06 02:43:17;;;;;;;8.25;5.00;;;;;;;1.11;87.98;97522.97;5050355;28;20052;-59
2022/01/06 02:45:43;;;;;;;7.85;4.70;;;;;;;1.17;87.78;97527.13;5046413;28;20033;-59
2022/01/06 02:48:09;;;;;;;6.75;4.10;;;;;;;1.17;87.58;97527.94;5048418;28;20056;-60
2022/01/06 02:50:40;;;;;;;7.53;4.28;;;;;;;0.87;87.35;97486.03;5048928;28;20346;-59
2022/01/06 02:53:07;;;;;;;7.25;4.30;;;;;;;1.22;87.43;97529.56;5050569;28;20308;-59
2022/01/06 02:55:35;;;;;;;5.70;4.25;;;;;;;1.22;87.17;97538.03;5051537;28;20572;-59
2022/01/06 02:58:01;;;;;;;8.48;4.55;;;;;;;1.09;87.40;97528.97;5052767;28;20049;-58
2022/01/06 03:00:27;;;;;;;6.07;4.22;;;;;;;1.09;87.61;97545.09;5052314;28;20079;-58
2022/01/06 03:02:53;;;;;;;5.15;4.32;;;;;;;1.10;87.55;97533.16;5050988;28;20114;-58
2022/01/06 03:05:19;;;;;;;5.07;3.95;;;;;;;1.22;87.43;97558.44;5051843;28;20041;-58
2022/01/06 03:07:46;;;;;;;5.20;3.92;;;;;;;0.90;87.19;97505.50;5051211;28;20566;-59
2022/01/06 03:10:15;;;;;;;6.00;3.88;;;;;;;1.15;86.51;97557.72;5052477;28;20040;-59
2022/01/06 03:12:43;;;;;;;5.38;3.50;;;;;;;1.18;86.26;97555.13;5052058;28;20029;-58
2022/01/06 03:15:17;;;;;;;4.72;3.63;;;;;;;0.81;85.97;97502.28;5051555;28;20383;-57
2022/01/06 03:17:46;;;;;;;6.03;3.95;;;;;;;1.13;85.98;97567.09;5053169;28;20051;-58
2022/01/06 03:20:13;;;;;;;4.60;3.20;;;;;;;1.18;86.20;97565.31;5051242;28;20036;-58
2022/01/06 03:22:39;;;;;;;4.28;3.33;;;;;;;1.15;85.49;97567.06;5052603;28;20036;-58
2022/01/06 03:25:07;;;;;;;6.03;3.85;;;;;;;1.15;85.50;97573.00;5050735;28;20041;-58
2022/01/06 03:27:33;;;;;;;5.15;3.45;;;;;;;1.13;85.07;97566.28;5051891;28;20302;-58
2022/01/06 03:29:58;;;;;;;6.10;3.67;;;;;;;1.11;85.55;97566.31;5051447;28;20025;-59
2022/01/06 03:32:24;;;;;;;5.25;3.15;;;;;;;1.07;84.84;97569.78;5052715;28;20041;-59
2022/01/06 03:34:50;;;;;;;5.80;3.35;;;;;;;1.13;84.71;97563.72;5052010;28;20033;-59
2022/01/06 03:37:16;;;;;;;6.32;3.08;;;;;;;1.11;84.27;97571.41;5051864;28;20276;-59
2022/01/06 03:39:43;;;;;;;4.35;2.90;;;;;;;1.14;84.33;97566.25;5051471;28;20392;-59
2022/01/06 03:42:11;;;;;;;6.15;3.20;;;;;;;0.98;84.25;97536.78;5051402;28;20025;-59
2022/01/06 03:44:37;;;;;;;5.38;3.05;;;;;;;1.20;83.72;97566.13;5051396;28;20029;-59
2022/01/06 03:47:02;;;;;;;5.43;2.42;;;;;;;1.09;83.77;97567.19;5051774;28;20310;-59
2022/01/06 03:49:28;;;;;;;4.80;2.80;;;;;;;1.05;82.83;97547.72;5052371;28;20037;-59
2022/01/06 03:51:54;;;;;;;3.58;2.25;;;;;;;1.17;82.60;97563.63;5051432;28;20063;-60
2022/01/06 03:54:19;;;;;;;3.13;2.08;;;;;;;1.16;82.58;97561.13;5050398;28;20252;-60
2022/01/06 03:56:48;;;;;;;3.60;2.17;;;;;;;1.23;81.97;97559.28;5051537;28;20041;-60
2022/01/06 03:59:14;;;;;;;4.00;1.95;;;;;;;1.21;82.10;97559.31;5048760;28;20043;-59
2022/01/06 04:01:39;;;;;;;4.18;2.45;;;;;;;1.18;82.13;97551.72;5049803;28;20021;-58
2022/01/06 04:04:05;;;;;;;3.97;1.90;;;;;;;1.23;81.11;97561.81;5051625;28;20457;-59
2022/01/06 04:06:31;;;;;;;5.03;2.10;;;;;;;1.26;81.54;97554.13;5050430;28;20118;-59
2022/01/06 04:08:56;;;;;;;3.13;1.88;;;;;;;1.26;82.12;97557.53;5051472;28;20037;-59
2022/01/06 04:11:22;;;;;;;2.22;1.85;;;;;;;1.24;81.80;97564.38;5052154;28;20025;-59
2022/01/06 04:13:47;;;;;;;4.93;2.30;;;;;;;1.27;81.36;97560.91;5050708;28;20317;-59
2022/01/06 04:16:16;;;;;;;3.03;2.03;;;;;;;1.17;81.07;97566.19;5051506;28;20035;-59
2022/01/06 04:18:41;;;;;;;3.50;1.80;;;;;;;1.14;80.82;97561.16;5050663;28;20041;-59
2022/01/06 04:21:07;;;;;;;3.60;1.75;;;;;;;1.22;81.39;97567.81;5050944;28;20083;-59
2022/01/06 04:23:33;;;;;;;3.55;2.03;;;;;;;1.32;81.61;97576.97;5050266;28;20348;-59
2022/01/06 04:25:59;;;;;;;3.00;1.60;;;;;;;1.28;80.87;97582.97;5051239;28;20037;-59
2022/01/06 04:28:25;;;;;;;6.20;1.95;;;;;;;1.20;82.03;97566.13;5051763;28;20079;-59
2022/01/06 04:30:50;;;;;;;4.35;2.15;;;;;;;1.32;81.74;97579.50;5052049;28;20037;-58
2022/01/06 04:33:17;;;;;;;5.38;2.15;;;;;;;1.33;81.78;97571.00;5050090;28;20590;-59
2022/01/06 04:35:42;;;;;;;4.30;2.00;;;;;;;1.26;81.44;97577.91;5049854;28;20091;-59
2022/01/06 04:38:08;;;;;;;5.32;1.85;;;;;;;1.18;80.87;97572.09;5051378;28;20276;-59
2022/01/06 04:40:33;;;;;;;5.35;1.98;;;;;;;1.21;81.60;97569.50;5050695;28;20052;-59
2022/01/06 04:42:59;;;;;;;4.32;2.42;;;;;;;1.32;81.43;97579.50;5050965;28;20041;-59
2022/01/06 04:45:24;;;;;;;5.47;3.55;;;;;;;1.33;81.46;97579.47;5050606;28;20025;-59
2022/01/06 04:47:50;;;;;;;5.57;2.65;;;;;;;1.28;80.83;97562.59;5050237;28;20100;-60
2022/01/06 04:50:16;;;;;;;5.50;2.20;;;;;;;1.33;81.20;97571.00;5048991;28;20033;-58
2022/01/06 04:52:41;;;;;;;5.53;2.42;;;;;;;1.31;80.86;97573.59;5051121;28;20083;-59
2022/01/06 04:55:07;;;;;;;7.35;2.17;;;;;;;1.33;80.33;97582.03;5050094;28;20127;-59
2022/01/06 04:57:33;;;;;;;4.07;2.08;;;;;;;1.28;80.47;97577.88;5050175;28;20045;-59
2022/01/06 04:59:59;;;;;;;5.82;2.53;;;;;;;1.33;81.10;97576.94;5049783;28;20044;-59
2022/01/06 05:02:25;;;;;;;5.40;2.10;;;;;;;1.32;80.37;97574.41;5051293;28;20330;-59
2022/01/06 05:04:50;;;;;;;4.20;2.30;;;;;;;1.27;80.93;97571.09;5049699;28;20041;-59
2022/01/06 05:07:16;;;;;;;7.53;2.47;;;;;;;1.32;81.02;97582.88;5049768;28;20320;-59
2022/01/06 05:09:42;;;;;;;8.30;2.83;;;;;;;1.17;80.40;97589.13;5050356;28;20084;-59
2022/01/06 05:12:07;;;;;;;8.20;2.40;;;;;;;1.28;80.26;97595.72;5048279;28;20037;-59
2022/01/06 05:14:33;;;;;;;4.25;2.53;;;;;;;1.28;80.06;97595.72;5050618;28;20028;-59
2022/01/06 05:16:59;;;;;;;7.10;2.42;;;;;;;1.36;79.83;97594.72;5048740;28;20257;-59
2022/01/06 05:19:25;;;;;;;7.65;2.50;;;;;;;1.35;80.01;97599.84;5049857;28;20263;-60
2022/01/06 05:21:54;;;;;;;10.13;2.88;;;;;;;1.30;79.12;97594.00;5048200;28;20378;-59
2022/01/06 05:24:23;;;;;;;5.65;2.78;;;;;;;1.33;80.43;97606.69;5050666;28;20033;-58
2022/01/06 05:26:49;;;;;;;4.15;2.60;;;;;;;1.37;80.41;97600.69;5049643;28;20033;-59
2022/01/06 05:29:15;;;;;;;3.58;2.40;;;;;;;1.33;80.58;97594.78;5049448;28;20099;-60
2022/01/06 05:31:41;;;;;;;4.65;2.30;;;;;;;1.38;80.72;97610.00;5049229;28;20029;-60
2022/01/06 05:34:07;;;;;;;6.68;3.05;;;;;;;1.34;80.94;97611.78;5050125;28;20037;-60
2022/01/06 05:36:33;;;;;;;10.80;3.50;;;;;;;1.35;82.14;97603.25;5049115;28;20047;-58
2022/01/06 05:39:00;;;;;;;4.80;2.55;;;;;;;1.28;83.24;97604.22;5049324;28;20567;-59
2022/01/06 05:41:26;;;;;;;3.33;2.47;;;;;;;1.21;83.75;97587.34;5049458;28;20246;-60
2022/01/06 05:43:52;;;;;;;6.70;2.53;;;;;;;1.27;83.82;97601.69;5050226;28;20041;-59
2022/01/06 05:46:18;;;;;;;4.95;2.75;;;;;;;1.27;84.12;97597.44;5050303;28;20064;-59
2022/01/06 05:48:44;;;;;;;8.02;3.13;;;;;;;1.25;84.28;97598.34;5049845;28;20083;-60
2022/01/06 05:51:10;;;;;;;5.95;3.40;;;;;;;1.26;84.21;97595.75;5049243;28;20368;-60
2022/01/06 05:53:36;;;;;;;7.65;2.80;;;;;;;1.29;83.88;97608.44;5049839;28;20033;-59
2022/01/06 05:56:02;;;;;;;6.43;2.60;;;;;;;1.28;84.14;97595.72;5049571;28;20256;-59
2022/01/06 05:58:27;;;;;;;7.88;2.95;;;;;;;1.31;83.56;97601.63;5049618;28;20021;-59
2022/01/06 06:00:53;;;;;;;7.15;3.60;;;;;;;1.32;83.93;97605.00;5047777;28;20037;-59
2022/01/06 06:03:19;;;;;;;5.75;3.03;;;;;;;1.31;84.19;97600.78;5050090;28;20033;-59
2022/01/06 06:05:44;;;;;;;8.30;3.53;;;;;;;1.27;84.23;97607.66;5049314;28;20045;-59
2022/01/06 06:08:10;;;;;;;8.43;4.03;;;;;;;1.25;84.15;97611.09;5048869;28;20085;-60
2022/01/06 06:10:36;;;;;;;5.68;3.03;;;;;;;1.31;84.45;97604.19;5048561;28;20322;-60
2022/01/06 06:13:02;;;;;;;7.30;3.03;;;;;;;1.30;84.28;97602.50;5050023;28;20058;-60
2022/01/06 06:15:33;;;;;;;7.45;3.38;;;;;;;1.29;84.30;97597.44;5048888;28;20041;-60
2022/01/06 06:18:02;;;;;;;9.55;4.32;;;;;;;1.32;83.91;97597.34;5049025;28;20084;-60
2022/01/06 06:20:28;;;;;;;6.35;3.72;;;;;;;1.34;83.66;97601.56;5048560;28;20033;-60
2022/01/06 06:22:54;;;;;;;7.55;3.40;;;;;;;1.36;83.04;97604.09;5049245;28;20056;-59
2022/01/06 06:25:19;;;;;;;6.72;3.65;;;;;;;1.35;83.11;97600.72;5050288;28;20041;-59
2022/01/06 06:27:45;;;;;;;10.25;3.72;;;;;;;1.42;83.49;97595.47;5049896;28;20269;-59
2022/01/06 06:30:11;;;;;;;9.20;4.30;;;;;;;1.43;83.51;97592.06;5052128;28;20037;-60
2022/01/06 06:32:37;;;;;;;8.60;3.78;;;;;;;1.47;83.16;97602.19;5053700;28;20036;-59
2022/01/06 06:35:04;;;;;;;11.70;4.53;;;;;;;1.38;83.20;97574.28;5052240;28;20257;-59
2022/01/06 06:37:30;;;;;;;12.90;4.00;;;;;;;1.40;83.38;97587.00;5051651;28;20093;-59
2022/01/06 06:39:57;;;;;;;11.95;4.32;;;;;;;1.47;83.13;97601.31;5052011;28;20029;-59
2022/01/06 06:42:23;;;;;;;9.18;4.15;;;;;;;1.48;82.92;97590.25;5052980;28;20033;-60
2022/01/06 06:44:49;;;;;;;10.45;4.35;;;;;;;1.48;82.62;97591.13;5051801;28;20233;-59
2022/01/06 06:47:15;;;;;;;14.45;3.83;;;;;;;1.47;83.66;97578.38;5052928;28;20033;-59
2022/01/06 06:49:40;;;;;;;11.57;4.30;;;;;;;1.46;83.20;97566.50;5051357;28;20039;-59
2022/01/06 06:52:06;;;;;;;8.88;3.78;;;;;;;1.28;82.91;97539.66;5053152;28;20066;-59
2022/01/06 06:54:31;;;;;;;4.95;3.03;;;;;;;1.57;82.42;97573.94;5051399;28;20035;-59
2022/01/06 06:56:57;;;;;;;4.88;2.97;;;;;;;1.61;82.17;97578.97;5051759;28;20033;-58
2022/01/06 06:59:23;;;;;;;6.72;3.40;;;;;;;1.64;82.26;97570.38;5052583;28;20045;-60
2022/01/06 07:01:48;;;;;;;7.82;3.58;;;;;;;1.65;81.94;97570.34;5053674;28;20045;-59
2022/01/06 07:04:14;;;;;;;9.27;3.85;;;;;;;1.61;81.56;97566.22;5052511;28;20198;-59
2022/01/06 07:06:39;;;;;;;9.95;3.67;;;;;;;1.61;81.76;97570.47;5052764;28;20049;-59
2022/01/06 07:09:05;;;;;;;11.65;3.75;;;;;;;1.57;81.48;97572.25;5053312;28;20029;-59
2022/01/06 07:11:32;;;;;;;7.53;3.72;;;;;;;1.67;82.01;97571.19;5053280;28;20033;-59
2022/01/06 07:13:58;;;;;;;10.65;3.70;;;;;;;1.63;81.79;97572.09;5051710;28;20089;-59
2022/01/06 07:16:23;;;;;;;7.75;3.63;;;;;;;1.67;81.61;97566.06;5051542;28;20321;-59
2022/01/06 07:18:49;;;;;;;13.65;4.18;;;;;;;1.70;81.33;97573.66;5051223;28;20034;-60
2022/01/06 07:21:14;;;;;;;7.15;3.50;;;;;;;1.70;81.48;97575.38;5032165;28;20037;-59
2022/01/06 07:23:40;;;;;;;12.85;4.63;;;;;;;1.69;81.85;97578.81;5050867;28;20041;-59
2022/01/06 07:26:06;;;;;;;9.57;3.63;;;;;;;1.74;81.84;97579.56;5050738;28;20033;-59
2022/01/06 07:28:31;;;;;;;12.60;4.10;;;;;;;1.63;81.83;97584.03;5053641;28;20041;-58
2022/01/06 07:30:57;;;;;;;7.13;3.90;;;;;;;1.66;82.02;97579.69;5052330;28;20036;-59
2022/01/06 07:33:22;;;;;;;7.30;3.67;;;;;;;1.68;81.95;97569.47;5052868;28;20052;-59
2022/01/06 07:35:48;;;;;;;8.20;3.78;;;;;;;1.63;81.70;97578.94;5052688;28;20052;-59
2022/01/06 07:38:13;;;;;;;7.40;4.20;;;;;;;1.71;82.06;97577.03;5050741;28;20073;-60
2022/01/06 07:40:39;;;;;;;11.13;3.97;;;;;;;1.71;81.83;97565.16;5050001;28;20049;-59
2022/01/06 07:43:05;;;;;;;10.38;4.40;;;;;;;1.67;81.76;97575.47;5050246;28;20029;-59
2022/01/06 07:45:31;;;;;;;10.95;4.45;;;;;;;1.57;82.45;97563.72;5051703;28;20055;-59
2022/01/06 07:48:00;;;;;;;8.68;4.38;;;;;;;1.68;82.46;97562.66;5051832;28;20052;-58
2022/01/06 07:50:30;;;;;;;9.90;4.00;;;;;;;1.26;81.70;97510.81;5051640;28;20041;-57
2022/01/06 07:52:57;;;;;;;8.77;4.00;;;;;;;1.70;82.12;97558.34;5050901;28;20029;-58
2022/01/06 07:55:23;;;;;;;9.70;4.18;;;;;;;1.76;81.58;97554.00;5050995;28;20044;-60
2022/01/06 07:57:50;;;;;;;14.73;4.85;;;;;;;1.78;82.19;97552.25;5051717;28;20032;-59
2022/01/06 08:00:17;;;;;;;13.32;6.78;;;;;;;1.90;82.12;97565.59;5051329;28;20029;-59
2022/01/06 08:02:44;;;;;;;10.80;5.82;;;;;;;1.86;81.74;97584.41;5050393;28;20048;-58
2022/01/06 08:05:12;;;;;;;11.60;4.72;;;;;;;1.80;81.55;97561.56;5049253;28;20021;-59
2022/01/06 08:07:37;;;;;;;15.20;5.65;;;;;;;1.73;82.28;97552.34;5050671;28;20037;-59
2022/01/06 08:10:04;;;;;;;12.00;5.25;;;;;;;1.83;82.50;97561.50;5051770;28;20159;-59
2022/01/06 08:12:30;;;;;;;15.75;5.88;;;;;;;1.78;82.51;97568.44;5050345;28;20032;-60
2022/01/06 08:14:55;;;;;;;13.73;5.93;;;;;;;1.75;83.23;97562.53;5050538;28;20029;-59
2022/01/06 08:17:21;;;;;;;11.98;5.80;;;;;;;1.78;83.66;97558.22;5051007;28;20025;-59
2022/01/06 08:19:47;;;;;;;11.88;6.28;;;;;;;1.77;83.95;97564.19;5049696;28;20071;-60
2022/01/06 08:22:13;;;;;;;13.38;6.22;;;;;;;1.45;84.34;97504.44;5049779;28;20048;-59
2022/01/06 08:24:39;;;;;;;13.77;6.72;;;;;;;1.73;84.13;97552.34;5048711;28;20041;-60
2022/01/06 08:27:08;;;;;;;12.32;6.45;;;;;;;1.70;84.72;97532.84;5050760;28;20037;-59
2022/01/06 08:29:41;;;;;;;11.18;6.47;;;;;;;1.84;84.97;97547.00;5049383;28;20036;-59
2022/01/06 08:32:07;;;;;;;15.77;6.78;;;;;;;1.83;84.87;97546.19;5050403;28;20086;-59
2022/01/06 08:34:34;;;;;;;22.63;8.00;;;;;;;1.76;86.00;97551.47;5052031;28;20222;-59
2022/01/06 08:37:00;;;;;;;13.80;7.15;;;;;;;1.82;85.89;97548.78;5049860;28;20040;-60
2022/01/06 08:39:25;;;;;;;17.17;7.85;;;;;;;1.86;86.04;97548.66;5050056;28;20044;-60
2022/01/06 08:41:53;;;;;;;13.02;7.63;;;;;;;1.86;85.59;97548.66;5049824;28;20052;-60
2022/01/06 08:44:19;;;;;;;16.48;7.85;;;;;;;1.85;85.90;97552.13;5049694;28;20064;-59
2022/01/06 08:46:46;;;;;;;17.77;7.65;;;;;;;1.52;86.27;97507.72;5050637;28;20336;-60
2022/01/06 08:49:13;;;;;;;19.77;8.52;;;;;;;1.75;86.85;97553.16;5048569;28;20090;-59
2022/01/06 08:51:39;;;;;;;16.15;8.55;;;;;;;1.68;86.98;97542.25;5048739;28;20041;-60
2022/01/06 08:54:06;;;;;;;14.52;7.90;;;;;;;1.77;86.75;97551.44;5050508;28;20030;-59
2022/01/06 08:56:33;;;;;;;17.45;8.43;;;;;;;1.61;87.50;97550.91;5049001;28;20037;-59
2022/01/06 08:58:59;;;;;;;16.67;8.30;;;;;;;1.66;87.54;97538.06;5051305;28;20053;-59
2022/01/06 09:01:24;;;;;;;16.50;8.32;;;;;;;1.71;87.65;97542.19;5050539;28;20053;-60
2022/01/06 09:03:50;;;;;;;14.80;7.72;;;;;;;1.53;87.34;97492.38;5050649;28;20049;-59
2022/01/06 09:06:16;;;;;;;12.23;7.90;;;;;;;1.89;87.12;97535.84;5050956;28;20103;-59
2022/01/06 09:08:41;;;;;;;14.23;8.45;;;;;;;1.94;86.86;97540.00;5047211;28;20064;-59
2022/01/06 09:11:07;;;;;;;14.70;8.40;;;;;;;2.01;87.14;97536.44;5048427;28;20037;-61
2022/01/06 09:13:32;;;;;;;15.07;8.85;;;;;;;2.02;86.84;97543.22;5050196;28;20040;-59
2022/01/06 09:15:58;;;;;;;14.63;9.02;;;;;;;1.73;86.79;97544.69;5049400;28;20041;-60
2022/01/06 09:18:23;;;;;;;14.27;9.15;;;;;;;1.92;87.04;97546.88;5049107;28;20041;-60
2022/01/06 09:20:50;;;;;;;15.40;9.38;;;;;;;2.02;86.82;97549.19;5048741;28;20082;-59
2022/01/06 09:23:15;;;;;;;19.05;9.85;;;;;;;1.97;86.45;97548.44;5049631;28;20072;-59
2022/01/06 09:25:41;;;;;;;11.77;8.50;;;;;;;1.97;86.35;97548.44;5047235;28;20041;-59
2022/01/06 09:28:06;;;;;;;14.02;9.30;;;;;;;2.00;86.19;97542.44;5050082;28;20025;-58
2022/01/06 09:30:32;;;;;;;13.05;8.90;;;;;;;2.02;86.13;97541.53;5049481;28;20206;-59
2022/01/06 09:32:58;;;;;;;15.70;9.77;;;;;;;2.04;86.34;97549.16;5049023;28;20318;-60
2022/01/06 09:35:23;;;;;;;17.85;9.52;;;;;;;2.14;86.13;97539.56;5049033;28;20024;-59
2022/01/06 09:37:49;;;;;;;16.80;9.75;;;;;;;2.03;85.41;97520.22;5048467;28;20053;-59
2022/01/06 09:40:15;;;;;;;17.35;9.02;;;;;;;2.15;85.09;97539.56;5050048;28;20060;-60
2022/01/06 09:42:41;;;;;;;16.17;9.38;;;;;;;2.05;85.80;97545.72;5050001;28;20265;-60
2022/01/06 09:45:07;;;;;;;14.35;8.50;;;;;;;2.18;85.49;97541.19;5047941;28;20067;-60
2022/01/06 09:47:33;;;;;;;13.27;8.25;;;;;;;2.07;85.31;97544.81;5048694;28;20037;-60
2022/01/06 09:49:59;;;;;;;16.90;8.73;;;;;;;2.02;85.58;97540.69;5049312;28;20045;-60
2022/01/06 09:52:25;;;;;;;15.68;8.75;;;;;;;2.02;85.56;97544.09;5049619;28;20076;-60
2022/01/06 09:54:51;;;;;;;15.43;8.85;;;;;;;2.14;85.36;97549.78;5049943;28;20037;-60
2022/01/06 09:57:16;;;;;;;16.95;8.88;;;;;;;2.05;85.41;97546.56;5047385;28;20049;-60
2022/01/06 09:59:44;;;;;;;10.18;7.47;;;;;;;2.00;85.42;97538.16;5047979;28;20290;-59
2022/01/06 10:02:16;;;;;;;17.25;8.65;;;;;;;2.12;85.18;97539.59;5046700;28;20241;-59
2022/01/06 10:04:47;;;;;;;14.10;9.18;;;;;;;2.00;85.26;97527.13;5047855;28;20278;-59
2022/01/06 10:07:15;;;;;;;14.55;8.13;;;;;;;1.85;85.20;97526.59;5049475;28;20104;-60
2022/01/06 10:09:41;;;;;;;12.90;8.18;;;;;;;2.03;85.21;97533.00;5049886;28;20040;-59
2022/01/06 10:12:11;;;;;;;15.38;8.23;;;;;;;1.71;85.50;97467.34;5049313;28;20321;-59
2022/01/06 10:14:43;;;;;;;13.00;8.65;;;;;;;2.10;85.52;97532.88;5064695;28;20033;-59
2022/01/06 10:17:15;;;;;;;15.10;8.75;;;;;;;1.66;85.65;97474.28;5048368;28;20076;-63
2022/01/06 10:19:43;;;;;;;16.30;9.23;;;;;;;2.08;85.77;97530.31;5047603;28;20234;-59
2022/01/06 10:22:19;;;;;;;14.95;9.13;;;;;;;2.07;85.48;97529.50;5049225;28;20087;-59
2022/01/06 10:24:47;;;;;;;18.70;9.15;;;;;;;2.09;85.88;97537.13;5064713;28;20024;-58
2022/01/06 10:27:16;;;;;;;15.63;9.02;;;;;;;1.75;85.75;97473.22;5048986;28;20033;-60
2022/01/06 10:29:43;;;;;;;19.45;8.77;;;;;;;2.20;85.68;97532.63;5047122;28;20085;-60
2022/01/06 10:32:12;;;;;;;15.55;9.02;;;;;;;1.84;85.81;97475.56;5048842;28;20029;-60
2022/01/06 10:34:43;;;;;;;18.92;9.25;;;;;;;1.87;85.94;97484.00;5048016;28;20029;-59
2022/01/06 10:37:31;;;;;;;13.38;7.43;;;;;;;2.16;85.77;97533.56;5047827;28;20061;-60
2022/01/06 10:39:59;;;;;;;14.52;7.30;;;;;;;2.23;86.00;97545.31;5047230;28;20086;-59
2022/01/06 10:42:28;;;;;;;15.20;6.93;;;;;;;2.22;86.04;97536.00;5047243;28;20057;-59
2022/01/06 10:45:04;;;;;;;12.90;7.40;;;;;;;1.89;85.96;97474.59;5049057;28;20033;-60
2022/01/06 10:47:35;;;;;;;16.85;9.63;;;;;;;2.09;86.43;97531.19;5048995;28;20087;-60
2022/01/06 10:50:13;;;;;;;12.65;8.40;;;;;;;2.17;86.25;97530.13;5048149;28;20045;-60
2022/01/06 10:52:40;;;;;;;18.60;7.88;;;;;;;2.19;86.41;97525.81;5047414;28;20021;-59
2022/01/06 10:55:28;;;;;;;12.63;7.95;;;;;;;2.25;86.65;97537.59;5048783;28;20117;-59
2022/01/06 10:58:17;;;;;;;13.40;7.50;;;;;;;2.15;86.64;97525.94;5047888;28;20041;-60
2022/01/06 11:00:48;;;;;;;16.48;8.40;;;;;;;2.23;86.53;97534.25;5049527;28;20108;-61
2022/01/06 11:03:20;;;;;;;17.90;8.10;;;;;;;2.25;86.69;97537.59;5046889;28;20033;-62
2022/01/06 11:05:51;;;;;;;15.45;8.52;;;;;;;2.22;86.86;97536.00;5048095;28;20104;-61
2022/01/06 11:08:20;;;;;;;19.88;9.45;;;;;;;2.15;86.90;97516.56;5048213;28;20344;-61
2022/01/06 11:10:51;;;;;;;17.05;10.20;;;;;;;2.17;87.07;97535.25;5047456;28;20029;-62
2022/01/06 11:13:17;;;;;;;13.77;8.82;;;;;;;2.18;87.06;97536.06;5049350;28;20059;-61
2022/01/06 11:15:44;;;;;;;13.55;8.52;;;;;;;2.17;87.21;97545.44;5050652;28;20321;-60
2022/01/06 11:18:16;;;;;;;15.55;9.07;;;;;;;2.21;87.27;97531.75;5051507;28;20032;-61
2022/01/06 11:20:42;;;;;;;17.02;8.32;;;;;;;2.18;87.05;97530.97;5050578;28;20075;-61
2022/01/06 11:23:20;;;;;;;14.20;7.50;;;;;;;2.26;86.95;97533.34;5050164;28;20032;-61
2022/01/06 11:25:45;;;;;;;16.42;8.38;;;;;;;2.26;86.56;97521.41;5048906;28;20239;-61
2022/01/06 11:28:12;;;;;;;12.88;7.72;;;;;;;2.20;86.69;97504.53;5050220;28;20044;-61
2022/01/06 11:30:42;;;;;;;12.23;8.05;;;;;;;1.84;86.21;97455.16;5050404;28;20087;-61
2022/01/06 11:33:08;;;;;;;12.75;8.00;;;;;;;2.18;86.90;97513.94;5050356;28;20056;-61
2022/01/06 11:36:00;;;;;;;12.27;7.13;;;;;;;2.19;86.42;97518.16;5051586;28;20025;-61
2022/01/06 11:38:27;;;;;;;14.70;8.25;;;;;;;2.29;86.22;97515.41;5031961;28;20044;-61
2022/01/06 11:41:08;;;;;;;12.20;7.38;;;;;;;2.19;86.64;97505.38;5049890;28;20060;-61
2022/01/06 11:43:36;;;;;;;14.15;8.15;;;;;;;2.16;86.08;97500.34;5050821;28;20025;-62
2022/01/06 11:46:02;;;;;;;13.05;7.35;;;;;;;2.30;86.13;97512.00;5051909;28;20056;-61
2022/01/06 11:48:28;;;;;;;17.23;7.82;;;;;;;2.32;85.87;97516.16;5053234;28;20037;-60
2022/01/06 11:50:54;;;;;;;9.98;7.25;;;;;;;2.26;85.51;97518.03;5051930;28;20036;-62